Time;durP1;ratioP1;P1;durP2;ratioP2;P2;SDS_P1;SDS_P2;PMS_P1;PMS_P2;Temp;Humidity;BMP_temperature;BMP_pressure;BME280_temperature;BME280_humidity;BME280_pressure;Samples;Min_cycle;Max_cycle;Signal;HPM_P1;HPM_P2
2022/09/07 00:01:06;;;;;;;4.97;4.57;;;28.10;43.20;;;;;;4994869;28;20445;-82
2022/09/07 00:03:34;;;;;;;4.40;4.20;;;28.20;43.50;;;;;;4983954;28;20501;-81
2022/09/07 00:06:07;;;;;;;5.00;4.60;;;28.10;43.30;;;;;;4983475;28;20505;-82
2022/09/07 00:08:35;;;;;;;4.73;4.43;;;28.20;43.40;;;;;;4989417;28;20458;-81
2022/09/07 00:11:05;;;;;;;4.63;4.33;;;28.10;43.30;;;;;;4981306;28;20457;-81
2022/09/07 00:13:34;;;;;;;5.20;4.70;;;28.10;43.30;;;;;;4979758;28;20972;-83
2022/09/07 00:16:04;;;;;;;4.70;4.40;;;28.10;43.40;;;;;;4987094;28;20448;-81
2022/09/07 00:18:33;;;;;;;4.77;4.47;;;28.10;43.40;;;;;;5005241;28;20456;-81
2022/09/07 00:21:02;;;;;;;4.63;4.30;;;28.10;43.40;;;;;;5008403;28;20439;-82
2022/09/07 00:23:31;;;;;;;5.43;4.93;;;28.10;43.30;;;;;;5002426;28;20493;-81
2022/09/07 00:26:00;;;;;;;5.13;4.53;;;28.20;43.30;;;;;;5003310;28;20496;-82
2022/09/07 00:28:31;;;;;;;5.00;4.60;;;28.10;43.30;;;;;;5003203;28;20449;-82
2022/09/07 00:30:59;;;;;;;4.90;4.50;;;28.10;43.30;;;;;;5006205;28;20461;-82
2022/09/07 00:33:27;;;;;;;4.80;4.43;;;28.10;43.30;;;;;;5004844;28;20446;-82
2022/09/07 00:35:55;;;;;;;5.17;4.67;;;28.10;43.50;;;;;;4995040;28;20557;-82
2022/09/07 00:38:23;;;;;;;5.37;4.87;;;28.10;43.40;;;;;;5004189;28;20445;-82
2022/09/07 00:40:53;;;;;;;5.10;4.70;;;28.10;43.40;;;;;;5002932;28;20446;-81
2022/09/07 00:43:30;;;;;;;4.53;4.23;;;28.10;43.30;;;;;;5001481;28;20482;-81
2022/09/07 00:45:58;;;;;;;4.77;4.37;;;28.10;43.40;;;;;;5002555;28;20435;-82
2022/09/07 00:48:27;;;;;;;4.87;4.57;;;28.10;43.40;;;;;;5001847;28;20858;-82
2022/09/07 00:50:57;;;;;;;4.93;4.53;;;28.10;43.40;;;;;;4991932;28;20433;-82
2022/09/07 00:53:27;;;;;;;5.07;4.70;;;28.10;43.40;;;;;;4999462;28;20479;-82
2022/09/07 00:55:57;;;;;;;5.47;4.97;;;28.10;43.40;;;;;;5001846;28;20458;-82
2022/09/07 00:58:25;;;;;;;5.23;4.67;;;28.10;43.50;;;;;;5002227;28;20428;-82
2022/09/07 01:00:54;;;;;;;4.67;4.27;;;28.10;43.50;;;;;;5002232;28;20481;-81
2022/09/07 01:03:23;;;;;;;4.40;4.10;;;28.00;43.40;;;;;;5002179;28;20500;-82
2022/09/07 01:05:53;;;;;;;4.27;3.97;;;28.00;43.50;;;;;;5002067;28;20539;-82
2022/09/07 01:08:22;;;;;;;4.70;4.33;;;28.10;43.50;;;;;;4995278;28;20454;-82
2022/09/07 01:10:50;;;;;;;4.70;4.40;;;28.10;43.40;;;;;;4994978;28;20473;-82
2022/09/07 01:13:19;;;;;;;4.30;4.00;;;28.00;43.40;;;;;;5001095;28;20424;-82
2022/09/07 01:15:55;;;;;;;4.70;4.40;;;28.10;43.30;;;;;;5001662;28;20523;-82
2022/09/07 01:18:29;;;;;;;7.40;4.30;;;28.10;43.60;;;;;;5001567;28;20528;-82
2022/09/07 01:21:20;;;;;;;5.10;4.70;;;28.10;43.50;;;;;;5002055;28;20428;-82
2022/09/07 01:24:02;;;;;;;4.70;4.40;;;28.10;43.40;;;;;;5001632;28;20473;-82
2022/09/07 01:26:42;;;;;;;5.20;4.70;;;28.10;43.50;;;;;;4992521;28;20515;-82
2022/09/07 01:29:15;;;;;;;4.60;4.30;;;28.00;43.40;;;;;;4997593;28;20424;-81
2022/09/07 01:31:48;;;;;;;4.83;4.43;;;28.00;43.50;;;;;;5003413;28;20560;-82
2022/09/07 01:34:19;;;;;;;5.10;4.60;;;28.00;43.50;;;;;;5001957;28;20499;-82
2022/09/07 01:36:50;;;;;;;4.53;4.23;;;28.00;43.50;;;;;;5001691;28;20432;-82
2022/09/07 01:39:18;;;;;;;5.17;4.77;;;28.00;43.50;;;;;;5002235;28;20555;-82
2022/09/07 01:41:49;;;;;;;5.13;4.80;;;28.00;43.40;;;;;;4995358;28;20520;-82
2022/09/07 01:44:20;;;;;;;5.00;4.60;;;28.00;43.40;;;;;;5000136;28;20479;-82
2022/09/07 01:46:51;;;;;;;4.83;4.53;;;28.00;43.60;;;;;;5001495;28;20467;-82
2022/09/07 01:49:21;;;;;;;4.30;4.07;;;28.00;43.40;;;;;;5002453;28;20522;-82
2022/09/07 01:51:51;;;;;;;4.73;4.43;;;28.00;43.50;;;;;;5004773;28;20438;-82
2022/09/07 01:54:21;;;;;;;6.93;4.30;;;28.00;43.50;;;;;;5006055;28;20432;-82
2022/09/07 01:56:49;;;;;;;4.70;4.40;;;28.00;43.40;;;;;;4998515;28;20505;-82
2022/09/07 01:59:20;;;;;;;4.90;4.60;;;28.00;43.50;;;;;;4990366;28;20448;-82
2022/09/07 02:01:50;;;;;;;4.90;4.40;;;28.00;43.50;;;;;;4982305;28;20457;-82
2022/09/07 02:04:19;;;;;;;5.07;4.77;;;28.00;43.50;;;;;;4981477;28;20667;-81
2022/09/07 02:06:48;;;;;;;4.60;4.30;;;28.00;43.50;;;;;;4981509;28;20445;-82
2022/09/07 02:09:18;;;;;;;4.63;4.33;;;28.00;43.50;;;;;;4981998;28;20470;-81
2022/09/07 02:11:48;;;;;;;4.93;4.50;;;28.00;43.50;;;;;;4982809;28;20979;-82
2022/09/07 02:14:19;;;;;;;5.10;4.60;;;28.00;43.50;;;;;;4989722;28;20484;-82
2022/09/07 02:16:50;;;;;;;5.10;4.70;;;28.00;43.60;;;;;;4984219;28;20529;-82
2022/09/07 02:19:18;;;;;;;4.40;4.10;;;28.00;43.60;;;;;;4984398;28;20424;-81
2022/09/07 02:21:48;;;;;;;4.80;4.50;;;27.90;43.40;;;;;;4983535;28;20421;-81
2022/09/07 02:24:18;;;;;;;4.50;4.30;;;27.90;43.60;;;;;;4983022;28;20573;-82
2022/09/07 02:26:48;;;;;;;4.47;4.17;;;28.00;43.60;;;;;;4981838;28;20461;-82
2022/09/07 02:29:16;;;;;;;4.53;4.13;;;28.00;43.50;;;;;;4988992;28;20470;-82
2022/09/07 02:31:46;;;;;;;5.63;4.23;;;27.90;43.60;;;;;;4983071;28;20477;-81
2022/09/07 02:34:14;;;;;;;4.50;4.20;;;27.90;43.40;;;;;;4983864;28;20436;-80
2022/09/07 02:36:44;;;;;;;4.63;4.30;;;27.90;43.50;;;;;;4986512;28;20464;-82
2022/09/07 02:39:12;;;;;;;4.80;4.50;;;27.90;43.60;;;;;;4986986;28;20480;-83
2022/09/07 02:41:41;;;;;;;4.53;4.23;;;27.90;43.70;;;;;;4988885;28;20496;-82
2022/09/07 02:44:12;;;;;;;5.23;4.83;;;27.90;43.50;;;;;;4986430;28;20508;-82
2022/09/07 02:46:51;;;;;;;4.73;4.40;;;27.90;43.50;;;;;;4991277;28;20504;-82
2022/09/07 02:49:26;;;;;;;4.23;4.03;;;27.90;43.50;;;;;;4994805;28;20421;-82
2022/09/07 02:51:58;;;;;;;4.80;4.50;;;27.90;43.60;;;;;;4986658;28;20420;-82
2022/09/07 02:54:34;;;;;;;4.83;4.43;;;27.90;43.80;;;;;;4986138;28;20510;-82
2022/09/07 02:57:06;;;;;;;4.60;4.20;;;27.90;43.60;;;;;;4985696;28;20449;-82
2022/09/07 02:59:40;;;;;;;4.83;4.43;;;27.90;43.60;;;;;;4984490;28;20496;-82
2022/09/07 03:02:12;;;;;;;4.57;4.27;;;27.90;43.70;;;;;;4984430;28;20427;-80
2022/09/07 03:04:43;;;;;;;4.73;4.43;;;27.90;43.70;;;;;;4988933;28;20479;-82
2022/09/07 03:07:12;;;;;;;5.30;4.83;;;27.90;43.60;;;;;;4992381;28;20916;-82
2022/09/07 03:09:42;;;;;;;4.20;3.90;;;27.80;43.60;;;;;;4984482;28;20424;-82
2022/09/07 03:12:10;;;;;;;4.47;4.20;;;27.90;43.60;;;;;;4984930;28;21025;-82
2022/09/07 03:14:39;;;;;;;7.30;4.10;;;27.90;43.60;;;;;;4982746;28;20412;-83
2022/09/07 03:17:07;;;;;;;4.73;4.43;;;27.90;43.70;;;;;;4988080;28;20509;-82
2022/09/07 03:19:36;;;;;;;3.90;3.70;;;27.90;43.60;;;;;;4989598;28;20440;-83
2022/09/07 03:22:04;;;;;;;4.63;4.33;;;27.90;43.70;;;;;;4995951;28;20456;-84
2022/09/07 03:24:35;;;;;;;5.17;4.77;;;27.80;43.60;;;;;;5000695;28;20990;-83
2022/09/07 03:27:03;;;;;;;3.93;3.73;;;27.90;43.60;;;;;;4998882;28;20420;-84
2022/09/07 03:29:31;;;;;;;4.50;4.10;;;27.80;43.60;;;;;;4997713;28;20474;-84
2022/09/07 03:31:59;;;;;;;4.30;4.00;;;27.80;43.60;;;;;;5001196;28;20423;-84
2022/09/07 03:34:27;;;;;;;4.67;4.37;;;27.80;43.80;;;;;;5004931;28;20441;-84
2022/09/07 03:36:57;;;;;;;4.90;4.43;;;27.80;43.70;;;;;;5002276;28;20472;-82
2022/09/07 03:39:25;;;;;;;4.73;4.43;;;27.80;43.60;;;;;;4995305;28;20477;-83
2022/09/07 03:41:53;;;;;;;4.67;4.30;;;27.80;43.70;;;;;;5004932;28;20536;-83
2022/09/07 03:44:21;;;;;;;4.40;4.00;;;27.80;43.80;;;;;;5007272;28;20467;-83
2022/09/07 03:46:49;;;;;;;4.70;4.40;;;27.80;43.90;;;;;;5007083;28;20496;-83
2022/09/07 03:49:17;;;;;;;4.33;4.13;;;27.80;43.80;;;;;;5003096;28;20483;-83
2022/09/07 03:51:46;;;;;;;4.17;3.87;;;27.80;43.80;;;;;;5001114;28;20432;-82
2022/09/07 03:54:15;;;;;;;4.67;4.37;;;27.80;43.90;;;;;;4995706;28;20486;-83
2022/09/07 03:56:43;;;;;;;4.43;4.13;;;27.80;43.80;;;;;;4987270;28;20470;-82
2022/09/07 03:59:11;;;;;;;4.93;4.50;;;27.80;43.80;;;;;;4977645;28;20469;-81
2022/09/07 04:01:39;;;;;;;4.13;3.93;;;27.80;43.80;;;;;;4978737;28;20470;-82
2022/09/07 04:04:07;;;;;;;4.40;4.10;;;27.80;43.90;;;;;;4977145;28;20473;-82
2022/09/07 04:06:35;;;;;;;4.83;4.43;;;27.80;43.90;;;;;;4980440;28;20546;-83
2022/09/07 04:09:04;;;;;;;4.00;3.80;;;27.80;43.80;;;;;;4982531;28;20424;-82
2022/09/07 04:11:33;;;;;;;4.33;4.13;;;27.80;44.00;;;;;;4979114;28;20484;-82
2022/09/07 04:14:01;;;;;;;4.47;4.27;;;27.80;43.90;;;;;;4988944;28;20464;-82
2022/09/07 04:16:30;;;;;;;5.20;4.80;;;27.70;44.00;;;;;;4998374;28;20540;-82
2022/09/07 04:18:58;;;;;;;4.13;3.93;;;27.70;43.90;;;;;;4997531;28;20499;-82
2022/09/07 04:21:26;;;;;;;4.27;3.97;;;27.70;43.90;;;;;;4996873;28;20423;-82
2022/09/07 04:23:54;;;;;;;4.33;4.10;;;27.70;44.00;;;;;;4996628;28;20473;-82
2022/09/07 04:26:23;;;;;;;4.50;4.20;;;27.70;43.80;;;;;;4995521;28;20505;-81
2022/09/07 04:28:53;;;;;;;4.77;4.47;;;27.70;44.00;;;;;;4995820;28;20451;-82
2022/09/07 04:31:21;;;;;;;4.70;4.40;;;27.70;43.90;;;;;;4985787;28;20577;-81
2022/09/07 04:33:50;;;;;;;4.57;3.90;;;27.70;44.10;;;;;;4975999;28;21006;-82
2022/09/07 04:36:18;;;;;;;4.60;4.30;;;27.70;44.00;;;;;;4976756;28;20501;-82
2022/09/07 04:38:46;;;;;;;4.60;4.30;;;27.70;44.10;;;;;;4976734;28;20457;-82
2022/09/07 04:41:16;;;;;;;3.97;3.77;;;27.70;44.20;;;;;;4976293;28;20477;-81
2022/09/07 04:43:44;;;;;;;4.50;4.30;;;27.70;44.10;;;;;;4980326;28;20453;-81
2022/09/07 04:46:17;;;;;;;4.60;4.30;;;27.70;44.20;;;;;;4982644;28;20544;-81
2022/09/07 04:48:47;;;;;;;5.00;4.63;;;27.70;44.10;;;;;;4982764;28;20428;-82
2022/09/07 04:51:15;;;;;;;3.83;3.60;;;27.60;44.20;;;;;;4984465;28;20465;-83
2022/09/07 04:53:43;;;;;;;5.00;4.60;;;27.70;44.20;;;;;;4983518;28;20473;-82
2022/09/07 04:56:11;;;;;;;4.30;3.90;;;27.70;44.20;;;;;;4982791;28;20464;-83
2022/09/07 04:58:43;;;;;;;4.83;4.43;;;27.70;44.10;;;;;;4984559;28;20471;-82
2022/09/07 05:01:13;;;;;;;5.23;4.40;;;27.60;44.30;;;;;;4980089;28;20488;-82
2022/09/07 05:03:50;;;;;;;4.57;4.27;;;27.60;44.20;;;;;;4991878;28;20465;-81
2022/09/07 05:06:24;;;;;;;4.10;3.90;;;27.70;44.30;;;;;;5001208;28;20506;-81
2022/09/07 05:08:52;;;;;;;4.60;4.30;;;27.70;44.30;;;;;;5004260;28;20476;-81
2022/09/07 05:11:21;;;;;;;4.67;4.37;;;27.70;44.30;;;;;;5006112;28;20571;-81
2022/09/07 05:13:56;;;;;;;4.13;3.93;;;27.60;44.20;;;;;;5001584;28;20826;-81
2022/09/07 05:16:25;;;;;;;4.40;4.10;;;27.70;44.40;;;;;;5006955;28;20476;-81
2022/09/07 05:18:55;;;;;;;4.40;4.10;;;27.70;44.30;;;;;;5009697;28;20435;-82
2022/09/07 05:21:24;;;;;;;4.60;4.30;;;27.70;44.30;;;;;;5007164;28;20434;-81
2022/09/07 05:23:52;;;;;;;4.60;4.23;;;27.70;44.20;;;;;;5004231;28;20488;-83
2022/09/07 05:26:21;;;;;;;4.87;4.57;;;27.70;44.40;;;;;;5000296;28;20513;-83
2022/09/07 05:28:49;;;;;;;4.23;3.93;;;27.70;44.40;;;;;;4996639;28;20515;-82
2022/09/07 05:31:18;;;;;;;4.40;4.10;;;27.70;44.30;;;;;;4996360;28;20423;-82
2022/09/07 05:33:49;;;;;;;4.97;4.57;;;27.70;44.30;;;;;;4995115;28;20437;-83
2022/09/07 05:36:40;;;;;;;4.83;4.53;;;27.70;44.20;;;;;;4991948;28;20449;-83
2022/09/07 05:39:16;;;;;;;4.20;3.90;;;27.70;44.50;;;;;;4992105;28;20450;-81
2022/09/07 05:41:44;;;;;;;4.57;4.27;;;27.60;44.40;;;;;;4986970;28;20438;-82
2022/09/07 05:44:12;;;;;;;4.93;4.57;;;27.70;44.30;;;;;;4986069;28;20478;-82
2022/09/07 05:47:00;;;;;;;4.83;4.53;;;27.70;44.70;;;;;;4985035;28;20498;-82
2022/09/07 05:49:30;;;;;;;4.23;3.93;;;27.60;44.30;;;;;;4985914;28;20429;-82
2022/09/07 05:51:58;;;;;;;4.43;4.03;;;27.60;44.30;;;;;;4987761;28;20442;-82
2022/09/07 05:54:28;;;;;;;4.70;4.40;;;27.70;44.50;;;;;;4992993;28;20435;-83
2022/09/07 05:57:02;;;;;;;4.40;4.13;;;27.60;44.30;;;;;;4999325;28;20472;-83
2022/09/07 05:59:30;;;;;;;4.03;3.83;;;27.70;44.40;;;;;;4998324;28;20416;-83
2022/09/07 06:01:58;;;;;;;4.77;4.47;;;27.70;44.20;;;;;;4994975;28;20440;-82
2022/09/07 06:04:26;;;;;;;4.47;4.20;;;27.70;44.30;;;;;;4994005;28;20445;-83
2022/09/07 06:06:56;;;;;;;4.23;3.93;;;27.70;44.20;;;;;;4993616;28;20852;-83
2022/09/07 06:09:44;;;;;;;4.40;4.10;;;27.70;44.30;;;;;;4993443;28;20920;-83
2022/09/07 06:12:32;;;;;;;4.70;4.50;;;27.80;44.40;;;;;;4973297;28;20437;-82
2022/09/07 06:15:00;;;;;;;4.63;4.33;;;27.80;44.20;;;;;;4973923;28;20467;-83
2022/09/07 06:17:28;;;;;;;4.90;4.60;;;27.80;44.20;;;;;;4974391;28;20538;-82
2022/09/07 06:19:56;;;;;;;4.30;4.03;;;27.80;44.10;;;;;;4978301;28;20442;-83
2022/09/07 06:22:26;;;;;;;4.97;4.57;;;27.80;44.20;;;;;;4983431;28;20431;-83
2022/09/07 06:24:58;;;;;;;4.47;4.27;;;27.80;44.10;;;;;;4981340;28;20440;-83
2022/09/07 06:27:26;;;;;;;6.53;4.50;;;27.80;44.10;;;;;;4998513;28;20457;-83
2022/09/07 06:29:54;;;;;;;4.70;4.40;;;27.80;44.20;;;;;;5008328;28;20433;-83
2022/09/07 06:32:22;;;;;;;4.67;4.27;;;27.90;44.10;;;;;;5015877;28;20449;-83
2022/09/07 06:35:10;;;;;;;4.47;4.17;;;27.80;44.10;;;;;;5016891;28;20449;-83
2022/09/07 06:37:39;;;;;;;4.57;4.30;;;27.80;44.10;;;;;;5017038;28;20429;-83
2022/09/07 06:40:09;;;;;;;5.00;4.70;;;27.90;44.00;;;;;;5016068;28;20408;-83
2022/09/07 06:42:37;;;;;;;4.33;4.13;;;27.90;43.90;;;;;;5009294;28;20494;-84
2022/09/07 06:45:06;;;;;;;4.63;4.27;;;27.90;44.00;;;;;;4998756;28;20489;-83
2022/09/07 06:47:34;;;;;;;4.20;4.00;;;27.90;44.00;;;;;;4994643;28;20423;-83
2022/09/07 06:50:02;;;;;;;4.70;4.40;;;28.00;44.00;;;;;;4995237;28;20456;-83
2022/09/07 06:52:30;;;;;;;4.50;4.30;;;28.00;44.00;;;;;;4996338;28;20445;-83
2022/09/07 06:55:20;;;;;;;4.80;4.50;;;28.00;43.90;;;;;;4996363;28;20432;-83
2022/09/07 06:57:48;;;;;;;4.87;4.50;;;28.00;43.90;;;;;;4994387;28;20478;-83
2022/09/07 07:00:16;;;;;;;4.07;3.80;;;28.10;43.80;;;;;;4985999;28;20468;-82
2022/09/07 07:02:44;;;;;;;4.43;4.13;;;28.10;43.80;;;;;;4976733;28;20452;-82
2022/09/07 07:05:13;;;;;;;4.37;4.17;;;28.10;43.70;;;;;;4975693;28;20545;-82
2022/09/07 07:07:41;;;;;;;4.63;4.33;;;28.20;44.40;;;;;;4980242;28;20469;-82
2022/09/07 07:10:09;;;;;;;4.93;4.43;;;28.20;43.60;;;;;;4980723;28;20469;-82
2022/09/07 07:12:38;;;;;;;4.67;4.37;;;28.20;43.60;;;;;;4980191;28;20521;-83
2022/09/07 07:15:07;;;;;;;4.87;4.37;;;28.20;43.60;;;;;;4978660;28;20466;-82
2022/09/07 07:17:36;;;;;;;4.20;4.00;;;28.20;43.50;;;;;;4978866;28;20430;-82
2022/09/07 07:20:04;;;;;;;4.27;3.97;;;28.30;43.50;;;;;;4979817;28;20445;-82
2022/09/07 07:22:33;;;;;;;4.53;4.20;;;28.30;43.40;;;;;;4981196;28;20446;-82
2022/09/07 07:25:16;;;;;;;4.50;4.30;;;28.30;43.40;;;;;;4983266;28;20465;-83
2022/09/07 07:27:45;;;;;;;4.60;4.30;;;28.40;43.30;;;;;;4982967;28;20581;-83
2022/09/07 07:30:13;;;;;;;5.00;4.60;;;28.40;43.30;;;;;;4991070;28;20456;-83
2022/09/07 07:32:42;;;;;;;4.00;3.90;;;28.40;43.20;;;;;;4980777;28;20450;-83
2022/09/07 07:35:10;;;;;;;4.80;4.50;;;28.50;43.30;;;;;;4982874;28;20470;-83
2022/09/07 07:37:38;;;;;;;4.37;4.07;;;28.50;43.20;;;;;;4998607;28;20444;-83
2022/09/07 07:40:08;;;;;;;5.10;4.80;;;28.50;43.10;;;;;;5001789;28;20453;-82
2022/09/07 07:42:49;;;;;;;4.50;4.27;;;28.50;43.10;;;;;;4979292;28;20446;-83
2022/09/07 07:45:17;;;;;;;4.00;3.80;;;28.60;43.20;;;;;;4985528;28;20466;-82
2022/09/07 07:48:05;;;;;;;4.47;4.17;;;28.50;43.00;;;;;;4986269;28;20430;-82
2022/09/07 07:50:33;;;;;;;4.60;4.30;;;28.60;43.10;;;;;;4985001;28;20413;-82
2022/09/07 07:53:01;;;;;;;5.27;4.87;;;28.60;43.00;;;;;;4981934;28;20528;-82
2022/09/07 07:55:49;;;;;;;4.80;4.40;;;28.60;43.00;;;;;;4985868;28;20509;-83
2022/09/07 07:58:19;;;;;;;4.80;4.50;;;28.70;43.00;;;;;;4985865;28;20441;-83
2022/09/07 08:00:47;;;;;;;4.23;3.93;;;28.70;43.00;;;;;;4985363;28;20450;-82
2022/09/07 08:03:22;;;;;;;4.40;4.10;;;28.80;43.00;;;;;;4990054;28;20458;-83
2022/09/07 08:05:50;;;;;;;5.07;4.60;;;28.80;42.90;;;;;;4997653;28;20447;-82
2022/09/07 08:08:18;;;;;;;4.43;4.17;;;28.80;42.90;;;;;;4997409;28;20460;-83
2022/09/07 08:10:46;;;;;;;4.70;4.40;;;28.90;42.90;;;;;;4995681;28;20453;-83
2022/09/07 08:13:14;;;;;;;5.47;5.07;;;28.80;43.00;;;;;;4995834;28;20454;-83
2022/09/07 08:15:44;;;;;;;4.83;4.53;;;28.80;42.90;;;;;;4995777;28;20447;-82
2022/09/07 08:18:13;;;;;;;5.40;4.87;;;28.90;43.10;;;;;;4988633;28;20499;-83
2022/09/07 08:20:41;;;;;;;4.70;4.40;;;28.90;43.10;;;;;;4987740;28;20445;-83
2022/09/07 08:23:09;;;;;;;4.80;4.50;;;29.00;43.20;;;;;;4995584;28;20967;-83
2022/09/07 08:25:37;;;;;;;4.63;4.33;;;29.00;43.20;;;;;;4995727;28;20473;-83
2022/09/07 08:28:05;;;;;;;4.70;4.50;;;29.10;43.20;;;;;;4995413;28;20484;-83
2022/09/07 08:30:33;;;;;;;4.87;4.53;;;29.20;43.20;;;;;;4996626;28;20460;-84
2022/09/07 08:33:03;;;;;;;5.10;4.80;;;29.30;42.90;;;;;;4999080;28;20544;-84
2022/09/07 08:35:31;;;;;;;4.63;4.43;;;29.40;42.60;;;;;;4990574;28;20472;-83
2022/09/07 08:37:59;;;;;;;4.33;4.13;;;29.50;42.60;;;;;;4994779;28;20448;-83
2022/09/07 08:40:27;;;;;;;5.27;4.93;;;29.50;42.40;;;;;;5003244;28;20427;-83
2022/09/07 08:43:01;;;;;;;5.10;4.70;;;29.70;42.30;;;;;;5000957;28;21023;-83
2022/09/07 08:45:30;;;;;;;5.23;4.77;;;29.70;42.20;;;;;;5003069;28;20473;-84
2022/09/07 08:47:58;;;;;;;4.87;4.57;;;29.80;42.10;;;;;;5001458;28;20564;-83
2022/09/07 08:50:30;;;;;;;5.70;5.17;;;29.80;41.90;;;;;;4997899;28;20514;-83
2022/09/07 08:53:01;;;;;;;4.60;4.40;;;29.90;41.70;;;;;;4995625;28;20450;-83
2022/09/07 08:55:30;;;;;;;5.07;4.77;;;30.00;41.80;;;;;;5003320;28;20465;-83
2022/09/07 08:58:02;;;;;;;4.77;4.50;;;30.10;41.70;;;;;;4991675;28;20454;-83
2022/09/07 09:00:31;;;;;;;5.20;4.90;;;30.30;41.50;;;;;;4985999;28;20420;-82
2022/09/07 09:02:59;;;;;;;4.57;4.20;;;30.30;41.40;;;;;;4993538;28;20512;-83
2022/09/07 09:05:54;;;;;;;5.03;4.73;;;30.30;41.20;;;;;;4984952;28;20457;-82
2022/09/07 09:08:40;;;;;;;5.20;4.87;;;30.30;41.30;;;;;;4988218;28;20473;-84
2022/09/07 09:11:10;;;;;;;4.50;4.30;;;30.30;41.30;;;;;;4988639;28;20453;-83
2022/09/07 09:13:47;;;;;;;5.07;4.77;;;30.40;41.40;;;;;;4994344;28;20459;-83
2022/09/07 09:16:17;;;;;;;4.77;4.50;;;30.50;41.20;;;;;;4983835;28;20440;-82
2022/09/07 09:18:53;;;;;;;5.17;4.77;;;30.60;41.20;;;;;;4992511;28;20446;-82
2022/09/07 09:21:23;;;;;;;4.97;4.57;;;30.70;41.00;;;;;;4985871;28;20441;-82
2022/09/07 09:23:52;;;;;;;4.57;4.30;;;30.70;40.60;;;;;;4990766;28;20465;-82
2022/09/07 09:26:22;;;;;;;5.10;4.80;;;30.70;40.60;;;;;;4985559;28;20490;-83
2022/09/07 09:28:50;;;;;;;4.60;4.30;;;30.80;40.50;;;;;;4996771;28;20474;-83
2022/09/07 09:31:19;;;;;;;4.90;4.60;;;30.80;40.60;;;;;;5000109;28;20464;-82
2022/09/07 09:34:09;;;;;;;4.60;4.30;;;30.70;40.50;;;;;;4995777;28;20445;-84
2022/09/07 09:36:43;;;;;;;5.00;4.60;;;30.70;40.40;;;;;;4979578;28;20473;-85
2022/09/07 09:39:25;;;;;;;5.13;4.73;;;30.60;40.60;;;;;;4984456;28;20449;-84
2022/09/07 09:41:54;;;;;;;8.23;4.20;;;30.70;40.60;;;;;;4977251;28;20501;-84
2022/09/07 09:44:22;;;;;;;3.93;3.73;;;30.70;40.70;;;;;;4976870;28;20448;-84
2022/09/07 09:46:53;;;;;;;4.73;4.33;;;30.80;40.60;;;;;;4974510;28;20507;-85
2022/09/07 09:49:41;;;;;;;4.63;4.33;;;30.90;40.60;;;;;;4989975;28;20468;-85
2022/09/07 09:52:16;;;;;;;4.07;3.87;;;31.00;40.40;;;;;;4974448;28;20454;-84
2022/09/07 09:55:05;;;;;;;4.43;4.13;;;30.90;40.20;;;;;;4973588;28;20481;-83
2022/09/07 09:57:57;;;;;;;4.43;4.03;;;30.80;40.30;;;;;;4983610;28;20441;-81
2022/09/07 10:00:54;;;;;;;9.03;4.73;;;30.80;40.50;;;;;;4998065;28;20453;-81
2022/09/07 10:03:42;;;;;;;4.93;4.53;;;30.90;40.50;;;;;;4984015;28;20438;-81
2022/09/07 10:06:29;;;;;;;4.10;3.80;;;30.90;40.50;;;;;;4978196;28;20476;-81
2022/09/07 10:08:59;;;;;;;4.73;4.40;;;30.90;40.60;;;;;;4977619;28;20485;-80
2022/09/07 10:11:41;;;;;;;5.20;4.70;;;30.90;40.60;;;;;;4978493;28;20446;-81
2022/09/07 10:14:29;;;;;;;4.43;4.03;;;31.00;40.50;;;;;;4977254;28;20501;-81
2022/09/07 10:16:58;;;;;;;5.10;4.70;;;30.90;40.50;;;;;;4978197;28;20450;-81
2022/09/07 10:19:32;;;;;;;4.37;4.10;;;30.90;40.50;;;;;;4977551;28;20446;-80
2022/09/07 10:22:01;;;;;;;4.43;3.97;;;31.00;40.60;;;;;;4977445;28;20450;-80
2022/09/07 10:24:34;;;;;;;5.47;4.13;;;31.00;40.70;;;;;;4976851;28;20521;-80
2022/09/07 10:27:03;;;;;;;4.20;4.00;;;30.90;40.80;;;;;;4978729;28;20806;-80
2022/09/07 10:29:34;;;;;;;4.13;3.93;;;30.90;41.10;;;;;;4977436;28;20445;-80
2022/09/07 10:32:17;;;;;;;4.20;4.00;;;31.10;41.10;;;;;;4977532;28;20457;-80
2022/09/07 10:34:52;;;;;;;4.87;4.57;;;31.20;40.80;;;;;;4975846;28;20442;-78
2022/09/07 10:37:25;;;;;;;4.80;4.50;;;31.30;40.50;;;;;;4975194;28;20433;-79
2022/09/07 10:40:00;;;;;;;4.30;4.00;;;31.40;40.40;;;;;;4974508;28;20449;-79
2022/09/07 10:42:29;;;;;;;4.03;3.83;;;31.40;40.00;;;;;;4976504;28;20445;-78
2022/09/07 10:45:03;;;;;;;4.03;3.77;;;31.60;40.00;;;;;;4977159;28;20477;-78
2022/09/07 10:47:37;;;;;;;4.00;3.80;;;31.80;39.70;;;;;;4980098;28;20505;-80
2022/09/07 10:50:08;;;;;;;4.13;3.83;;;32.00;39.30;;;;;;4985215;28;20537;-81
2022/09/07 10:52:54;;;;;;;4.07;3.87;;;32.10;39.10;;;;;;5001567;28;20524;-81
2022/09/07 10:55:27;;;;;;;5.90;4.10;;;31.80;39.20;;;;;;5015354;28;20448;-81
2022/09/07 10:58:06;;;;;;;4.03;3.80;;;31.70;39.70;;;;;;4999769;28;20451;-81
2022/09/07 11:00:38;;;;;;;3.97;3.77;;;31.50;39.90;;;;;;5007782;28;20928;-81
2022/09/07 11:03:19;;;;;;;4.63;3.77;;;31.40;40.10;;;;;;5000900;28;20476;-81
2022/09/07 11:06:02;;;;;;;4.20;3.90;;;31.20;40.40;;;;;;4980271;28;20469;-80
2022/09/07 11:08:34;;;;;;;5.73;4.03;;;31.10;40.50;;;;;;4979171;28;20504;-82
2022/09/07 11:11:26;;;;;;;7.50;3.70;;;31.00;40.80;;;;;;4979995;28;20441;-81
2022/09/07 11:14:16;;;;;;;4.33;3.97;;;31.00;41.00;;;;;;4981013;28;20438;-82
2022/09/07 11:16:55;;;;;;;4.23;4.03;;;31.10;41.00;;;;;;4992558;28;20471;-82
2022/09/07 11:19:26;;;;;;;4.23;3.97;;;31.00;40.80;;;;;;5000882;28;20437;-82
2022/09/07 11:22:07;;;;;;;4.33;4.13;;;31.00;40.90;;;;;;5000224;28;20427;-82
2022/09/07 11:24:37;;;;;;;4.03;3.73;;;31.00;40.80;;;;;;4999963;28;20445;-81
2022/09/07 11:27:09;;;;;;;4.00;3.90;;;31.00;40.90;;;;;;4999135;28;20447;-82
2022/09/07 11:29:40;;;;;;;3.87;3.67;;;30.90;40.70;;;;;;5000722;28;20476;-82
2022/09/07 11:32:11;;;;;;;4.87;4.03;;;30.90;41.00;;;;;;5001303;28;20457;-82
2022/09/07 11:34:40;;;;;;;4.20;3.90;;;31.10;40.90;;;;;;4995947;28;20506;-85
2022/09/07 11:37:17;;;;;;;4.20;4.00;;;31.10;40.70;;;;;;4989077;28;20453;-87
2022/09/07 11:39:52;;;;;;;3.43;3.27;;;31.50;40.20;;;;;;5000005;28;20458;-82
2022/09/07 11:42:25;;;;;;;3.40;3.30;;;31.80;39.20;;;;;;5000852;28;20520;-82
2022/09/07 11:45:15;;;;;;;3.60;3.40;;;32.30;38.90;;;;;;4998063;28;20457;-82
2022/09/07 11:47:45;;;;;;;3.40;3.10;;;33.50;37.20;;;;;;5001794;28;20449;-81
2022/09/07 11:50:14;;;;;;;7.43;3.50;;;33.10;37.10;;;;;;5001080;28;20449;-80
2022/09/07 11:52:43;;;;;;;14.37;4.20;;;32.80;37.50;;;;;;4991180;28;20476;-81
2022/09/07 11:55:12;;;;;;;5.47;3.70;;;32.60;38.10;;;;;;4996385;28;20464;-81
2022/09/07 11:57:49;;;;;;;9.57;3.70;;;32.60;38.60;;;;;;4989099;28;20433;-81
2022/09/07 12:00:23;;;;;;;8.10;3.13;;;32.60;38.00;;;;;;4998152;28;20449;-82
2022/09/07 12:03:04;;;;;;;3.50;3.30;;;33.00;37.80;;;;;;5001044;28;20445;-82
2022/09/07 12:06:05;;;;;;;3.43;3.00;;;33.20;37.20;;;;;;5000228;28;20469;-82
2022/09/07 12:08:43;;;;;;;7.43;3.30;;;33.20;37.10;;;;;;4980473;28;20527;-82
2022/09/07 12:11:30;;;;;;;4.50;3.73;;;33.10;37.10;;;;;;4999072;28;20452;-82
2022/09/07 12:14:06;;;;;;;3.77;3.47;;;33.50;36.40;;;;;;4999954;28;20448;-82
2022/09/07 12:16:40;;;;;;;3.50;3.30;;;33.70;36.10;;;;;;4994077;28;20483;-81
2022/09/07 12:19:18;;;;;;;3.40;3.13;;;33.30;36.70;;;;;;4994985;28;20439;-81
2022/09/07 12:21:49;;;;;;;5.00;3.63;;;32.90;37.20;;;;;;4999351;28;20485;-82
2022/09/07 12:24:40;;;;;;;4.20;3.20;;;33.00;37.50;;;;;;5000834;28;20445;-82
2022/09/07 12:27:37;;;;;;;3.10;2.80;;;33.40;37.70;;;;;;5000769;28;20553;-82
2022/09/07 12:30:53;;;;;;;3.43;3.13;;;34.50;35.80;;;;;;4998878;28;20527;-82
2022/09/07 12:33:27;;;;;;;3.30;3.10;;;34.30;35.40;;;;;;4961706;28;20450;-82
2022/09/07 12:35:57;;;;;;;4.00;3.33;;;33.80;36.00;;;;;;4979719;28;20476;-82
2022/09/07 12:38:57;;;;;;;3.13;2.93;;;33.80;36.30;;;;;;4980225;28;20457;-82
2022/09/07 12:41:25;;;;;;;3.43;3.13;;;33.30;36.60;;;;;;4979272;28;20435;-82
2022/09/07 12:44:05;;;;;;;3.67;3.40;;;33.20;37.20;;;;;;4978737;28;20470;-82
2022/09/07 12:46:47;;;;;;;4.10;3.13;;;32.90;37.60;;;;;;4978792;28;21008;-82
2022/09/07 12:49:44;;;;;;;3.87;3.43;;;33.20;37.80;;;;;;4981973;28;20481;-82
2022/09/07 12:52:54;;;;;;;4.70;3.10;;;33.30;36.90;;;;;;4977235;28;20493;-81
2022/09/07 12:55:47;;;;;;;3.10;3.00;;;33.30;37.20;;;;;;4977246;28;20496;-81
2022/09/07 12:58:41;;;;;;;3.23;2.90;;;33.20;37.10;;;;;;4976299;28;20526;-82
2022/09/07 13:01:19;;;;;;;3.10;2.93;;;33.40;37.00;;;;;;4977066;28;20488;-81
2022/09/07 13:04:13;;;;;;;3.40;3.20;;;33.30;36.80;;;;;;4985788;28;20454;-81
2022/09/07 13:06:57;;;;;;;2.90;2.70;;;34.00;36.70;;;;;;4962742;28;20469;-82
2022/09/07 13:09:37;;;;;;;3.30;3.10;;;34.90;35.20;;;;;;4979156;28;20492;-82
2022/09/07 13:12:29;;;;;;;2.90;2.77;;;35.00;34.30;;;;;;4981038;28;20467;-82
2022/09/07 13:15:42;;;;;;;3.00;2.90;;;34.40;35.00;;;;;;4979739;28;20458;-81
2022/09/07 13:18:41;;;;;;;2.90;2.70;;;33.80;35.80;;;;;;4972438;28;20526;-81